Balikesir, Turkey
Current Conditions -  °F | °C
As of 10:50 AM on Sunday 26 Oct 2014 (Local Time) from LTBF Reporting Station
Rain Showers Rain Showers  
Wind Chill: 55°   Ceiling: 10000
Heat Index: 55°   Visibility: 6mi
Dew Point: 50°   Wind: 7mph
Humidity: 82%   Direction: 360°N
Pressure: 30.06"   Gusts: NA
Location:  39.65°N, 27.88°E
Report Text: LTBF 260750Z 36006KT 340V040 9999 -SHRA FEW010 SCT035 BKN100 13/10 Q1018 NOSIG
Loading
Personal Weather Stations






























Interactive Weather Map New forecast layout! Learn more

10-Day Weather Forecast

Advertisements
Track Severe Weather on mobile